Meers, Oklahoma
Current Conditions -  °F | °C
As of 9:58 AM on Thursday 27 Nov 2014 (Local Time) from KFSI Reporting Station
Clear Clear  
Wind Chill: 38°   Ceiling: Unl
Heat Index: 41°   Visibility: 10mi
Dew Point: 25°   Wind: 5mph
Humidity: 54%   Direction: 70°ENE
Pressure: 30.53"   Gusts: NA
Location:  34.78°N, 98.58°W
Report Text: KFSI 271558Z AUTO 07004KT 10SM CLR 05/M04 A3053 RMK AO2 SLP344 T00491038
Loading
Personal Weather Stations






























Interactive Weather Map New forecast layout! Learn more

10-Day Weather Forecast

Advertisements
Track Severe Weather on mobile